sensor_id;sensor_type;location;lat;lon;timestamp;pressure;altitude;pressure_sealevel;temperature;humidity
7109;BME280;29079;41.930;25.558;2023-05-20T00:00:47;99779.16;;;15.49;86.81
7109;BME280;29079;41.930;25.558;2023-05-20T00:03:36;99748.88;;;15.47;86.91
7109;BME280;29079;41.930;25.558;2023-05-20T00:06:24;99769.41;;;15.57;86.48
7109;BME280;29079;41.930;25.558;2023-05-20T00:09:12;99764.72;;;15.59;87.15
7109;BME280;29079;41.930;25.558;2023-05-20T00:12:00;99768.75;;;15.55;87.43
7109;BME280;29079;41.930;25.558;2023-05-20T00:14:47;99763.22;;;15.64;87.13
7109;BME280;29079;41.930;25.558;2023-05-20T00:17:35;99749.22;;;15.44;88.53
7109;BME280;29079;41.930;25.558;2023-05-20T00:20:24;99761.16;;;15.50;87.32
7109;BME280;29079;41.930;25.558;2023-05-20T00:23:12;99775.28;;;15.44;87.22
7109;BME280;29079;41.930;25.558;2023-05-20T00:26:00;99767.91;;;15.62;86.86
7109;BME280;29079;41.930;25.558;2023-05-20T00:28:48;99754.47;;;15.54;87.42
7109;BME280;29079;41.930;25.558;2023-05-20T00:31:36;99749.56;;;15.58;87.39
7109;BME280;29079;41.930;25.558;2023-05-20T00:34:24;99750.56;;;15.48;87.68
7109;BME280;29079;41.930;25.558;2023-05-20T00:37:13;99739.09;;;15.38;86.45
7109;BME280;29079;41.930;25.558;2023-05-20T00:40:01;99732.41;;;15.42;86.79
7109;BME280;29079;41.930;25.558;2023-05-20T00:42:49;99714.31;;;15.18;86.98
7109;BME280;29079;41.930;25.558;2023-05-20T00:45:37;99734.75;;;15.45;87.42
7109;BME280;29079;41.930;25.558;2023-05-20T00:48:28;99737.41;;;15.37;87.55
7109;BME280;29079;41.930;25.558;2023-05-20T00:51:18;99742.13;;;15.35;85.79
7109;BME280;29079;41.930;25.558;2023-05-20T00:54:08;99743.63;;;15.38;86.30
7109;BME280;29079;41.930;25.558;2023-05-20T00:56:57;99715.69;;;15.30;86.77
7109;BME280;29079;41.930;25.558;2023-05-20T00:59:48;99747.97;;;15.30;86.74
7109;BME280;29079;41.930;25.558;2023-05-20T01:02:36;99750.84;;;15.37;86.77
7109;BME280;29079;41.930;25.558;2023-05-20T01:05:24;99748.53;;;15.50;86.55
7109;BME280;29079;41.930;25.558;2023-05-20T01:08:12;99740.84;;;15.64;86.81
7109;BME280;29079;41.930;25.558;2023-05-20T01:11:06;99741.63;;;15.40;88.15
7109;BME280;29079;41.930;25.558;2023-05-20T01:13:57;99742.66;;;15.47;86.94
7109;BME280;29079;41.930;25.558;2023-05-20T01:16:49;99744.41;;;15.22;86.48
7109;BME280;29079;41.930;25.558;2023-05-20T01:19:40;99743.25;;;15.24;86.21
7109;BME280;29079;41.930;25.558;2023-05-20T01:22:30;99734.66;;;15.21;87.45
7109;BME280;29079;41.930;25.558;2023-05-20T01:25:19;99736.91;;;15.34;85.81
7109;BME280;29079;41.930;25.558;2023-05-20T01:28:07;99708.44;;;14.80;87.38
7109;BME280;29079;41.930;25.558;2023-05-20T01:30:57;99729.19;;;15.04;86.63
7109;BME280;29079;41.930;25.558;2023-05-20T01:33:49;99723.50;;;15.07;86.96
7109;BME280;29079;41.930;25.558;2023-05-20T01:36:38;99722.31;;;14.75;88.06
7109;BME280;29079;41.930;25.558;2023-05-20T01:39:29;99722.81;;;15.05;89.89
7109;BME280;29079;41.930;25.558;2023-05-20T01:42:18;99720.94;;;14.97;90.17
7109;BME280;29079;41.930;25.558;2023-05-20T01:45:07;99719.38;;;14.87;88.56
7109;BME280;29079;41.930;25.558;2023-05-20T01:47:55;99731.06;;;14.77;87.48
7109;BME280;29079;41.930;25.558;2023-05-20T01:50:43;99724.34;;;14.73;87.85
7109;BME280;29079;41.930;25.558;2023-05-20T01:53:30;99719.22;;;14.62;88.67
7109;BME280;29079;41.930;25.558;2023-05-20T01:56:19;99722.81;;;14.53;89.14
7109;BME280;29079;41.930;25.558;2023-05-20T01:59:07;99725.13;;;14.66;88.45
7109;BME280;29079;41.930;25.558;2023-05-20T02:01:55;99726.91;;;14.83;88.41
7109;BME280;29079;41.930;25.558;2023-05-20T02:04:44;99715.00;;;14.86;89.09
7109;BME280;29079;41.930;25.558;2023-05-20T02:07:33;99703.66;;;14.74;88.68
7109;BME280;29079;41.930;25.558;2023-05-20T02:10:21;99715.94;;;14.68;89.65
7109;BME280;29079;41.930;25.558;2023-05-20T02:13:10;99720.75;;;14.91;89.10
7109;BME280;29079;41.930;25.558;2023-05-20T02:15:58;99720.75;;;14.91;88.11
7109;BME280;29079;41.930;25.558;2023-05-20T02:18:45;99724.25;;;14.91;88.67
7109;BME280;29079;41.930;25.558;2023-05-20T02:21:33;99734.56;;;14.96;87.13
7109;BME280;29079;41.930;25.558;2023-05-20T02:24:21;99734.72;;;15.03;88.18
7109;BME280;29079;41.930;25.558;2023-05-20T02:27:09;99716.38;;;14.63;86.96
7109;BME280;29079;41.930;25.558;2023-05-20T02:29:59;99732.91;;;15.03;86.23
7109;BME280;29079;41.930;25.558;2023-05-20T02:32:47;99725.72;;;15.12;85.09
7109;BME280;29079;41.930;25.558;2023-05-20T02:35:35;99697.63;;;14.72;85.42
7109;BME280;29079;41.930;25.558;2023-05-20T02:38:23;99721.84;;;15.14;86.54
7109;BME280;29079;41.930;25.558;2023-05-20T02:41:11;99717.84;;;15.19;85.87
7109;BME280;29079;41.930;25.558;2023-05-20T02:43:58;99719.75;;;15.00;84.91
7109;BME280;29079;41.930;25.558;2023-05-20T02:46:48;99708.63;;;14.87;85.65
7109;BME280;29079;41.930;25.558;2023-05-20T02:49:35;99720.78;;;14.99;87.71
7109;BME280;29079;41.930;25.558;2023-05-20T02:52:23;99733.34;;;14.90;85.65
7109;BME280;29079;41.930;25.558;2023-05-20T02:55:11;99737.09;;;14.71;86.20
7109;BME280;29079;41.930;25.558;2023-05-20T02:57:59;99736.13;;;14.80;86.81
7109;BME280;29079;41.930;25.558;2023-05-20T03:00:47;99737.69;;;14.65;86.78
7109;BME280;29079;41.930;25.558;2023-05-20T03:03:36;99747.19;;;14.77;86.36
7109;BME280;29079;41.930;25.558;2023-05-20T03:06:26;99751.94;;;14.84;86.36
7109;BME280;29079;41.930;25.558;2023-05-20T03:09:15;99750.91;;;14.58;87.22
7109;BME280;29079;41.930;25.558;2023-05-20T03:12:04;99746.50;;;14.75;87.44
7109;BME280;29079;41.930;25.558;2023-05-20T03:14:52;99738.59;;;14.74;86.84
7109;BME280;29079;41.930;25.558;2023-05-20T03:17:40;99751.94;;;14.84;87.70
7109;BME280;29079;41.930;25.558;2023-05-20T03:20:30;99743.19;;;14.82;86.39
7109;BME280;29079;41.930;25.558;2023-05-20T03:23:18;99727.34;;;14.70;86.99
7109;BME280;29079;41.930;25.558;2023-05-20T03:26:06;99738.44;;;14.75;87.46
7109;BME280;29079;41.930;25.558;2023-05-20T03:28:54;99744.41;;;14.87;87.14
7109;BME280;29079;41.930;25.558;2023-05-20T03:31:42;99740.78;;;14.70;87.61
7109;BME280;29079;41.930;25.558;2023-05-20T03:34:30;99750.56;;;14.79;86.70
7109;BME280;29079;41.930;25.558;2023-05-20T03:37:19;99745.88;;;14.82;87.96
7109;BME280;29079;41.930;25.558;2023-05-20T03:40:08;99746.13;;;14.70;86.94
7109;BME280;29079;41.930;25.558;2023-05-20T03:42:56;99752.66;;;14.94;86.27
7109;BME280;29079;41.930;25.558;2023-05-20T03:45:44;99742.56;;;14.88;86.26
7109;BME280;29079;41.930;25.558;2023-05-20T03:48:32;99744.91;;;14.91;85.98
7109;BME280;29079;41.930;25.558;2023-05-20T03:51:20;99759.19;;;14.91;85.60
7109;BME280;29079;41.930;25.558;2023-05-20T03:54:09;99759.25;;;14.73;85.50
7109;BME280;29079;41.930;25.558;2023-05-20T03:56:57;99727.28;;;14.62;85.96
7109;BME280;29079;41.930;25.558;2023-05-20T03:59:46;99743.69;;;14.77;86.00
7109;BME280;29079;41.930;25.558;2023-05-20T04:02:33;99732.03;;;14.68;85.82
7109;BME280;29079;41.930;25.558;2023-05-20T04:05:22;99764.84;;;14.80;86.13
7109;BME280;29079;41.930;25.558;2023-05-20T04:08:10;99756.25;;;14.76;85.59
7109;BME280;29079;41.930;25.558;2023-05-20T04:11:00;99754.78;;;14.82;86.08
7109;BME280;29079;41.930;25.558;2023-05-20T04:13:48;99764.16;;;14.78;86.80
7109;BME280;29079;41.930;25.558;2023-05-20T04:16:36;99767.84;;;14.77;87.55
7109;BME280;29079;41.930;25.558;2023-05-20T04:19:24;99764.47;;;14.75;87.72
7109;BME280;29079;41.930;25.558;2023-05-20T04:22:14;99764.38;;;14.85;87.14
7109;BME280;29079;41.930;25.558;2023-05-20T04:25:01;99758.63;;;14.79;87.54
7109;BME280;29079;41.930;25.558;2023-05-20T04:27:53;99761.38;;;14.88;88.34
7109;BME280;29079;41.930;25.558;2023-05-20T04:30:43;99754.03;;;14.98;87.04
7109;BME280;29079;41.930;25.558;2023-05-20T04:33:31;99757.88;;;14.95;86.39
7109;BME280;29079;41.930;25.558;2023-05-20T04:36:23;99767.72;;;14.87;87.15
7109;BME280;29079;41.930;25.558;2023-05-20T04:39:14;99762.00;;;15.08;86.52
7109;BME280;29079;41.930;25.558;2023-05-20T04:42:02;99769.94;;;15.18;86.31
7109;BME280;29079;41.930;25.558;2023-05-20T04:44:51;99774.03;;;15.30;86.44
7109;BME280;29079;41.930;25.558;2023-05-20T04:47:39;99762.09;;;15.32;85.54
7109;BME280;29079;41.930;25.558;2023-05-20T04:50:27;99716.47;;;15.14;83.60
7109;BME280;29079;41.930;25.558;2023-05-20T04:53:15;99773.78;;;15.58;83.00
7109;BME280;29079;41.930;25.558;2023-05-20T04:56:03;99788.97;;;15.75;81.61
7109;BME280;29079;41.930;25.558;2023-05-20T04:58:51;99766.69;;;15.91;81.20
7109;BME280;29079;41.930;25.558;2023-05-20T05:01:41;99782.50;;;15.94;80.56
7109;BME280;29079;41.930;25.558;2023-05-20T05:04:29;99783.06;;;16.06;81.59
7109;BME280;29079;41.930;25.558;2023-05-20T05:07:16;99769.25;;;16.09;81.67
7109;BME280;29079;41.930;25.558;2023-05-20T05:10:05;99767.03;;;16.05;82.20
7109;BME280;29079;41.930;25.558;2023-05-20T05:12:53;99724.81;;;15.97;81.80
7109;BME280;29079;41.930;25.558;2023-05-20T05:15:40;99784.22;;;16.36;80.71
7109;BME280;29079;41.930;25.558;2023-05-20T05:18:30;99784.94;;;16.47;80.01
7109;BME280;29079;41.930;25.558;2023-05-20T05:21:17;99776.34;;;16.51;80.50
7109;BME280;29079;41.930;25.558;2023-05-20T05:24:06;99775.47;;;16.51;79.38
7109;BME280;29079;41.930;25.558;2023-05-20T05:26:54;99782.72;;;16.67;79.46
7109;BME280;29079;41.930;25.558;2023-05-20T05:29:41;99778.69;;;16.63;79.57
7109;BME280;29079;41.930;25.558;2023-05-20T05:32:29;99788.78;;;16.52;79.25
7109;BME280;29079;41.930;25.558;2023-05-20T05:35:19;99781.69;;;16.60;80.03
7109;BME280;29079;41.930;25.558;2023-05-20T05:38:07;99795.19;;;16.76;79.02
7109;BME280;29079;41.930;25.558;2023-05-20T05:40:55;99796.84;;;16.77;79.01
7109;BME280;29079;41.930;25.558;2023-05-20T05:43:42;99795.69;;;16.88;79.21
7109;BME280;29079;41.930;25.558;2023-05-20T05:46:32;99785.91;;;16.95;78.37
7109;BME280;29079;41.930;25.558;2023-05-20T05:49:20;99791.31;;;16.95;78.66
7109;BME280;29079;41.930;25.558;2023-05-20T05:52:10;99772.41;;;16.87;78.49
7109;BME280;29079;41.930;25.558;2023-05-20T05:54:58;99803.28;;;17.01;77.93
7109;BME280;29079;41.930;25.558;2023-05-20T05:57:46;99800.69;;;17.16;78.16
7109;BME280;29079;41.930;25.558;2023-05-20T06:00:36;99802.88;;;17.20;77.62
7109;BME280;29079;41.930;25.558;2023-05-20T06:03:26;99803.22;;;17.17;77.85
7109;BME280;29079;41.930;25.558;2023-05-20T06:06:15;99799.63;;;17.33;78.37
7109;BME280;29079;41.930;25.558;2023-05-20T06:09:04;99796.41;;;17.38;77.48
7109;BME280;29079;41.930;25.558;2023-05-20T06:11:52;99736.19;;;17.06;77.86
7109;BME280;29079;41.930;25.558;2023-05-20T06:14:40;99812.69;;;17.61;77.35
7109;BME280;29079;41.930;25.558;2023-05-20T06:17:30;99819.63;;;17.55;75.98
7109;BME280;29079;41.930;25.558;2023-05-20T06:20:18;99802.44;;;17.48;76.99
7109;BME280;29079;41.930;25.558;2023-05-20T06:23:06;99820.88;;;17.76;78.02
7109;BME280;29079;41.930;25.558;2023-05-20T06:25:58;99820.72;;;17.78;78.71
7109;BME280;29079;41.930;25.558;2023-05-20T06:28:46;99819.75;;;17.70;78.64
7109;BME280;29079;41.930;25.558;2023-05-20T06:31:34;99810.75;;;17.78;77.81
7109;BME280;29079;41.930;25.558;2023-05-20T06:34:21;99805.81;;;17.82;76.24
7109;BME280;29079;41.930;25.558;2023-05-20T06:37:09;99793.66;;;17.86;76.64
7109;BME280;29079;41.930;25.558;2023-05-20T06:39:58;99812.84;;;17.99;75.88
7109;BME280;29079;41.930;25.558;2023-05-20T06:42:47;99802.31;;;18.13;76.57
7109;BME280;29079;41.930;25.558;2023-05-20T06:45:34;99805.22;;;18.11;76.60
7109;BME280;29079;41.930;25.558;2023-05-20T06:48:22;99806.34;;;18.17;76.45
7109;BME280;29079;41.930;25.558;2023-05-20T06:51:10;99810.44;;;18.13;75.88
7109;BME280;29079;41.930;25.558;2023-05-20T06:53:58;99814.38;;;18.25;75.50
7109;BME280;29079;41.930;25.558;2023-05-20T06:56:46;99808.25;;;18.31;75.77
7109;BME280;29079;41.930;25.558;2023-05-20T06:59:35;99805.28;;;18.49;75.12
7109;BME280;29079;41.930;25.558;2023-05-20T07:02:24;99789.63;;;18.59;74.10
7109;BME280;29079;41.930;25.558;2023-05-20T07:05:11;99788.91;;;18.66;73.66
7109;BME280;29079;41.930;25.558;2023-05-20T07:07:59;99780.53;;;18.60;74.14
7109;BME280;29079;41.930;25.558;2023-05-20T07:10:47;99779.59;;;18.68;74.30
7109;BME280;29079;41.930;25.558;2023-05-20T07:13:35;99775.97;;;18.76;74.66
7109;BME280;29079;41.930;25.558;2023-05-20T07:16:24;99790.44;;;18.83;74.29
7109;BME280;29079;41.930;25.558;2023-05-20T07:19:12;99776.56;;;18.86;73.56
7109;BME280;29079;41.930;25.558;2023-05-20T07:22:00;99791.53;;;18.97;74.76
7109;BME280;29079;41.930;25.558;2023-05-20T07:24:48;99714.97;;;18.58;74.44
7109;BME280;29079;41.930;25.558;2023-05-20T07:27:36;99791.97;;;19.01;74.77
7109;BME280;29079;41.930;25.558;2023-05-20T07:30:24;99794.50;;;19.02;74.04
7109;BME280;29079;41.930;25.558;2023-05-20T07:33:13;99784.25;;;19.12;72.99
7109;BME280;29079;41.930;25.558;2023-05-20T07:36:01;99796.88;;;19.20;71.95
7109;BME280;29079;41.930;25.558;2023-05-20T07:38:49;99787.91;;;19.35;72.94
7109;BME280;29079;41.930;25.558;2023-05-20T07:41:48;99793.69;;;19.31;73.06
7109;BME280;29079;41.930;25.558;2023-05-20T07:44:36;99785.94;;;19.13;74.68
7109;BME280;29079;41.930;25.558;2023-05-20T07:47:24;99794.53;;;19.32;74.40
7109;BME280;29079;41.930;25.558;2023-05-20T07:50:13;99793.19;;;19.43;73.44
7109;BME280;29079;41.930;25.558;2023-05-20T07:53:01;99801.88;;;19.38;70.71
7109;BME280;29079;41.930;25.558;2023-05-20T07:55:49;99798.34;;;19.23;70.66
7109;BME280;29079;41.930;25.558;2023-05-20T07:58:36;99795.66;;;19.38;69.10
7109;BME280;29079;41.930;25.558;2023-05-20T08:01:24;99792.44;;;19.64;67.41
7109;BME280;29079;41.930;25.558;2023-05-20T08:04:12;99792.28;;;19.51;66.73
7109;BME280;29079;41.930;25.558;2023-05-20T08:07:02;99787.03;;;19.34;66.61
7109;BME280;29079;41.930;25.558;2023-05-20T08:09:49;99797.03;;;19.34;67.65
7109;BME280;29079;41.930;25.558;2023-05-20T08:12:37;99808.41;;;19.44;68.00
7109;BME280;29079;41.930;25.558;2023-05-20T08:15:25;99796.19;;;19.48;68.08
7109;BME280;29079;41.930;25.558;2023-05-20T08:18:13;99802.06;;;19.66;66.52
7109;BME280;29079;41.930;25.558;2023-05-20T08:21:01;99793.84;;;19.60;66.24
7109;BME280;29079;41.930;25.558;2023-05-20T08:23:51;99792.47;;;19.49;67.49
7109;BME280;29079;41.930;25.558;2023-05-20T08:26:39;99778.66;;;19.44;66.14
7109;BME280;29079;41.930;25.558;2023-05-20T08:29:27;99788.25;;;19.61;65.98
7109;BME280;29079;41.930;25.558;2023-05-20T08:32:15;99792.88;;;19.97;61.68
7109;BME280;29079;41.930;25.558;2023-05-20T08:35:03;99784.09;;;19.95;62.56
7109;BME280;29079;41.930;25.558;2023-05-20T08:37:52;99792.56;;;20.07;62.24
7109;BME280;29079;41.930;25.558;2023-05-20T08:40:41;99787.91;;;20.23;62.92
7109;BME280;29079;41.930;25.558;2023-05-20T08:43:29;99797.97;;;20.07;64.65
7109;BME280;29079;41.930;25.558;2023-05-20T08:46:19;99805.78;;;20.17;64.80
7109;BME280;29079;41.930;25.558;2023-05-20T08:49:08;99785.91;;;20.10;63.48
7109;BME280;29079;41.930;25.558;2023-05-20T08:51:56;99785.34;;;20.36;64.14
7109;BME280;29079;41.930;25.558;2023-05-20T08:54:47;99787.59;;;20.54;63.24
7109;BME280;29079;41.930;25.558;2023-05-20T08:57:37;99783.47;;;20.58;63.15
7109;BME280;29079;41.930;25.558;2023-05-20T09:00:27;99790.19;;;20.41;61.77
7109;BME280;29079;41.930;25.558;2023-05-20T09:03:15;99794.94;;;20.39;63.27
7109;BME280;29079;41.930;25.558;2023-05-20T09:06:04;99795.34;;;20.35;61.80
7109;BME280;29079;41.930;25.558;2023-05-20T09:08:52;99787.22;;;20.35;62.17
7109;BME280;29079;41.930;25.558;2023-05-20T09:11:40;99793.22;;;20.31;63.06
7109;BME280;29079;41.930;25.558;2023-05-20T09:14:30;99796.50;;;20.05;63.26
7109;BME280;29079;41.930;25.558;2023-05-20T09:17:19;99806.25;;;19.84;64.67
7109;BME280;29079;41.930;25.558;2023-05-20T09:20:09;99797.19;;;19.77;65.14
7109;BME280;29079;41.930;25.558;2023-05-20T09:22:58;99764.69;;;19.92;62.55
7109;BME280;29079;41.930;25.558;2023-05-20T09:25:48;99797.59;;;20.10;64.31
7109;BME280;29079;41.930;25.558;2023-05-20T09:28:37;99795.19;;;20.00;63.99
7109;BME280;29079;41.930;25.558;2023-05-20T09:31:30;99797.00;;;19.93;65.88
7109;BME280;29079;41.930;25.558;2023-05-20T09:34:19;99789.25;;;19.75;66.02
7109;BME280;29079;41.930;25.558;2023-05-20T09:37:08;99793.59;;;19.55;65.33
7109;BME280;29079;41.930;25.558;2023-05-20T09:39:59;99780.06;;;19.55;67.33
7109;BME280;29079;41.930;25.558;2023-05-20T09:42:52;99699.41;;;18.99;67.40
7109;BME280;29079;41.930;25.558;2023-05-20T09:45:40;99785.09;;;19.43;67.47
7109;BME280;29079;41.930;25.558;2023-05-20T09:48:30;99786.38;;;19.47;69.08
7109;BME280;29079;41.930;25.558;2023-05-20T09:51:21;99778.00;;;19.42;67.99
7109;BME280;29079;41.930;25.558;2023-05-20T09:54:11;99783.50;;;19.34;67.94
7109;BME280;29079;41.930;25.558;2023-05-20T09:56:59;99790.41;;;19.21;68.00
7109;BME280;29079;41.930;25.558;2023-05-20T09:59:47;99783.97;;;19.22;68.64
7109;BME280;29079;41.930;25.558;2023-05-20T10:02:36;99758.50;;;19.17;68.65
7109;BME280;29079;41.930;25.558;2023-05-20T10:05:28;99790.03;;;19.39;71.49
7109;BME280;29079;41.930;25.558;2023-05-20T10:11:45;99769.97;;;19.34;68.93
7109;BME280;29079;41.930;25.558;2023-05-20T10:14:42;99777.63;;;19.45;70.28
7109;BME280;29079;41.930;25.558;2023-05-20T10:17:40;99775.00;;;19.37;70.20
7109;BME280;29079;41.930;25.558;2023-05-20T10:20:44;99767.06;;;19.50;69.09
7109;BME280;29079;41.930;25.558;2023-05-20T10:23:32;99766.69;;;19.68;67.62
7109;BME280;29079;41.930;25.558;2023-05-20T10:26:19;99765.81;;;19.67;67.04
7109;BME280;29079;41.930;25.558;2023-05-20T10:29:14;99762.47;;;19.65;65.04
7109;BME280;29079;41.930;25.558;2023-05-20T10:32:03;99759.75;;;19.80;64.68
7109;BME280;29079;41.930;25.558;2023-05-20T10:34:51;99743.47;;;19.95;64.34
7109;BME280;29079;41.930;25.558;2023-05-20T10:37:42;99741.66;;;20.03;63.04
7109;BME280;29079;41.930;25.558;2023-05-20T10:40:31;99736.31;;;20.09;62.80
7109;BME280;29079;41.930;25.558;2023-05-20T10:43:25;99739.84;;;20.10;62.90
7109;BME280;29079;41.930;25.558;2023-05-20T10:46:17;99735.91;;;19.91;65.61
7109;BME280;29079;41.930;25.558;2023-05-20T10:49:20;99721.56;;;19.75;65.60
7109;BME280;29079;41.930;25.558;2023-05-20T10:52:13;99727.72;;;19.84;64.75
7109;BME280;29079;41.930;25.558;2023-05-20T10:55:03;99749.84;;;19.88;62.48
7109;BME280;29079;41.930;25.558;2023-05-20T10:57:51;99745.00;;;19.83;64.68
7109;BME280;29079;41.930;25.558;2023-05-20T11:00:39;99740.03;;;19.87;66.41
7109;BME280;29079;41.930;25.558;2023-05-20T11:03:28;99734.06;;;19.91;63.31
7109;BME280;29079;41.930;25.558;2023-05-20T11:06:17;99741.16;;;19.77;61.90
7109;BME280;29079;41.930;25.558;2023-05-20T11:09:05;99730.16;;;19.79;63.22
7109;BME280;29079;41.930;25.558;2023-05-20T11:11:54;99721.03;;;19.80;62.08
7109;BME280;29079;41.930;25.558;2023-05-20T11:14:42;99723.22;;;19.91;61.24
7109;BME280;29079;41.930;25.558;2023-05-20T11:17:31;99726.56;;;19.93;63.31
7109;BME280;29079;41.930;25.558;2023-05-20T11:20:19;99726.78;;;20.13;62.20
7109;BME280;29079;41.930;25.558;2023-05-20T11:23:11;99719.28;;;20.15;63.72
7109;BME280;29079;41.930;25.558;2023-05-20T11:25:59;99725.41;;;20.24;61.71
7109;BME280;29079;41.930;25.558;2023-05-20T11:28:49;99714.22;;;20.34;59.92
7109;BME280;29079;41.930;25.558;2023-05-20T11:31:37;99722.47;;;20.47;57.89
7109;BME280;29079;41.930;25.558;2023-05-20T11:34:31;99697.25;;;20.47;60.66
7109;BME280;29079;41.930;25.558;2023-05-20T11:37:19;99703.84;;;20.66;60.52
7109;BME280;29079;41.930;25.558;2023-05-20T11:40:09;99695.19;;;20.77;61.02
7109;BME280;29079;41.930;25.558;2023-05-20T11:42:59;99698.25;;;20.67;61.74
7109;BME280;29079;41.930;25.558;2023-05-20T11:45:52;99707.06;;;20.48;62.13
7109;BME280;29079;41.930;25.558;2023-05-20T11:48:50;99711.19;;;20.44;61.58
7109;BME280;29079;41.930;25.558;2023-05-20T11:51:38;99689.84;;;20.34;61.15
7109;BME280;29079;41.930;25.558;2023-05-20T11:54:26;99703.41;;;20.34;60.15
7109;BME280;29079;41.930;25.558;2023-05-20T11:57:14;99714.03;;;20.35;61.35
7109;BME280;29079;41.930;25.558;2023-05-20T12:00:02;99705.41;;;20.25;62.15
7109;BME280;29079;41.930;25.558;2023-05-20T12:02:53;99711.84;;;20.24;61.17
7109;BME280;29079;41.930;25.558;2023-05-20T12:05:42;99709.41;;;20.29;62.19
7109;BME280;29079;41.930;25.558;2023-05-20T12:08:30;99716.44;;;20.24;62.88
7109;BME280;29079;41.930;25.558;2023-05-20T12:11:18;99714.72;;;20.16;64.20
7109;BME280;29079;41.930;25.558;2023-05-20T12:14:07;99703.09;;;20.00;63.58
7109;BME280;29079;41.930;25.558;2023-05-20T12:16:55;99700.19;;;20.02;65.65
7109;BME280;29079;41.930;25.558;2023-05-20T12:19:44;99690.06;;;20.11;66.88
7109;BME280;29079;41.930;25.558;2023-05-20T12:22:33;99701.38;;;20.14;64.32
7109;BME280;29079;41.930;25.558;2023-05-20T12:25:20;99693.78;;;20.10;64.79
7109;BME280;29079;41.930;25.558;2023-05-20T12:28:09;99695.16;;;20.21;64.68
7109;BME280;29079;41.930;25.558;2023-05-20T12:30:57;99697.22;;;20.18;66.94
7109;BME280;29079;41.930;25.558;2023-05-20T12:33:45;99701.28;;;20.08;64.68
7109;BME280;29079;41.930;25.558;2023-05-20T12:36:34;99695.38;;;19.97;65.90
7109;BME280;29079;41.930;25.558;2023-05-20T12:39:23;99695.38;;;19.97;64.99
7109;BME280;29079;41.930;25.558;2023-05-20T12:42:10;99688.53;;;20.02;65.08
7109;BME280;29079;41.930;25.558;2023-05-20T12:44:58;99685.66;;;20.10;64.82
7109;BME280;29079;41.930;25.558;2023-05-20T12:47:46;99679.09;;;20.19;64.83
7109;BME280;29079;41.930;25.558;2023-05-20T12:50:34;99675.59;;;20.25;63.98
7109;BME280;29079;41.930;25.558;2023-05-20T12:53:24;99663.94;;;20.25;63.09
7109;BME280;29079;41.930;25.558;2023-05-20T12:56:12;99666.94;;;20.37;64.29
7109;BME280;29079;41.930;25.558;2023-05-20T12:59:00;99661.47;;;20.30;61.92
7109;BME280;29079;41.930;25.558;2023-05-20T13:01:47;99629.97;;;20.00;62.51
7109;BME280;29079;41.930;25.558;2023-05-20T13:04:35;99658.34;;;19.83;61.07
7109;BME280;29079;41.930;25.558;2023-05-20T13:07:23;99644.44;;;19.86;62.76
7109;BME280;29079;41.930;25.558;2023-05-20T13:10:13;99640.22;;;20.05;66.98
7109;BME280;29079;41.930;25.558;2023-05-20T13:13:02;99621.06;;;20.07;62.80
7109;BME280;29079;41.930;25.558;2023-05-20T13:15:50;99617.22;;;20.23;61.53
7109;BME280;29079;41.930;25.558;2023-05-20T13:18:38;99618.34;;;20.35;65.80
7109;BME280;29079;41.930;25.558;2023-05-20T13:21:26;99599.38;;;20.35;64.37
7109;BME280;29079;41.930;25.558;2023-05-20T13:24:14;99608.94;;;20.31;61.82
7109;BME280;29079;41.930;25.558;2023-05-20T13:27:04;99573.38;;;20.12;61.88
7109;BME280;29079;41.930;25.558;2023-05-20T13:29:52;99605.03;;;20.40;67.11
7109;BME280;29079;41.930;25.558;2023-05-20T13:32:40;99609.44;;;20.41;64.05
7109;BME280;29079;41.930;25.558;2023-05-20T13:35:27;99583.63;;;20.17;64.69
7109;BME280;29079;41.930;25.558;2023-05-20T13:38:15;99598.31;;;20.29;62.18
7109;BME280;29079;41.930;25.558;2023-05-20T13:41:03;99586.66;;;20.35;61.81
7109;BME280;29079;41.930;25.558;2023-05-20T13:43:52;99584.00;;;20.42;62.91
7109;BME280;29079;41.930;25.558;2023-05-20T13:46:40;99570.47;;;20.49;63.55
7109;BME280;29079;41.930;25.558;2023-05-20T13:49:28;99572.81;;;20.52;63.83
7109;BME280;29079;41.930;25.558;2023-05-20T13:52:16;99564.63;;;20.45;64.11
7109;BME280;29079;41.930;25.558;2023-05-20T13:55:05;99559.06;;;20.60;62.34
7109;BME280;29079;41.930;25.558;2023-05-20T13:57:53;99557.09;;;20.76;63.91
7109;BME280;29079;41.930;25.558;2023-05-20T14:00:42;99554.38;;;20.76;63.18
7109;BME280;29079;41.930;25.558;2023-05-20T14:03:32;99553.75;;;20.74;65.08
7109;BME280;29079;41.930;25.558;2023-05-20T14:06:22;99540.25;;;20.45;62.68
7109;BME280;29079;41.930;25.558;2023-05-20T14:09:10;99552.38;;;20.49;64.46
7109;BME280;29079;41.930;25.558;2023-05-20T14:11:58;99531.09;;;20.53;65.00
7109;BME280;29079;41.930;25.558;2023-05-20T14:14:46;99542.59;;;20.62;63.31
7109;BME280;29079;41.930;25.558;2023-05-20T14:17:35;99533.66;;;20.61;63.18
7109;BME280;29079;41.930;25.558;2023-05-20T14:20:23;99536.97;;;20.63;61.92
7109;BME280;29079;41.930;25.558;2023-05-20T14:23:11;99531.97;;;20.60;62.88
7109;BME280;29079;41.930;25.558;2023-05-20T14:25:59;99542.59;;;20.62;63.94
7109;BME280;29079;41.930;25.558;2023-05-20T14:28:47;99538.66;;;20.64;65.33
7109;BME280;29079;41.930;25.558;2023-05-20T14:31:35;99536.97;;;20.63;63.27
7109;BME280;29079;41.930;25.558;2023-05-20T14:34:25;99525.38;;;20.69;65.74
7109;BME280;29079;41.930;25.558;2023-05-20T14:37:13;99516.69;;;20.46;65.26
7109;BME280;29079;41.930;25.558;2023-05-20T14:40:03;99489.50;;;20.32;65.96
7109;BME280;29079;41.930;25.558;2023-05-20T14:42:52;99499.81;;;20.50;64.78
7109;BME280;29079;41.930;25.558;2023-05-20T14:45:40;99502.09;;;20.47;64.50
7109;BME280;29079;41.930;25.558;2023-05-20T14:48:28;99502.75;;;20.56;63.57
7109;BME280;29079;41.930;25.558;2023-05-20T14:51:18;99499.88;;;20.64;64.38
7109;BME280;29079;41.930;25.558;2023-05-20T14:54:06;99504.22;;;20.58;64.71
7109;BME280;29079;41.930;25.558;2023-05-20T14:56:54;99499.84;;;20.57;65.42